Canalou, Missouri
Current Conditions -  °F | °C
As of 4:24 AM on Monday 26 Jan 2015 (Local Time) from KCGI Reporting Station
Scattered Clouds Scattered Clouds  
Wind Chill: 23°   Ceiling: Unl
Heat Index: 32°   Visibility: 10mi
Dew Point: 26°   Wind: 12mph
Humidity: 79%   Direction: 340°NNW
Pressure: 30.04"   Gusts: NA
Location:  36.76°N, 89.69°W
Report Text: KCGI 261024Z AUTO 34010KT 10SM SCT017 00/M03 A3004 RMK AO2 T00001033 TSNO
Loading
Personal Weather Stations






























Interactive Weather Map New forecast layout! Learn more

10-Day Weather Forecast

Advertisements
Track Severe Weather on mobile